Time;durP1;ratioP1;P1;durP2;ratioP2;P2;SDS_P1;SDS_P2;PMS_P1;PMS_P2;Temp;Humidity;BMP_temperature;BMP_pressure;BME280_temperature;BME280_humidity;BME280_pressure;Samples;Min_cycle;Max_cycle;Signal;HPM_P1;HPM_P2
2023/05/21 00:01:42;;;;;;;;;;;13.30;99.90;;;;;;5065329;28;19924;-73
2023/05/21 00:04:10;;;;;;;;;;;13.40;99.90;;;;;;5088949;28;20342;-73
2023/05/21 00:06:38;;;;;;;;;;;13.30;99.90;;;;;;5109617;28;19935;-73
2023/05/21 00:09:05;;;;;;;;;;;13.40;99.90;;;;;;5109767;28;19942;-73
2023/05/21 00:11:33;;;;;;;;;;;13.30;99.90;;;;;;5108133;28;19928;-73
2023/05/21 00:14:00;;;;;;;;;;;13.30;99.90;;;;;;5078743;28;19932;-74
2023/05/21 00:16:26;;;;;;;;;;;13.30;99.90;;;;;;5081787;28;19928;-73
2023/05/21 00:18:54;;;;;;;;;;;13.30;99.90;;;;;;5073548;28;19982;-74
2023/05/21 00:21:21;;;;;;;;;;;13.30;99.90;;;;;;5085356;28;19928;-74
2023/05/21 00:23:49;;;;;;;;;;;13.20;99.90;;;;;;5080071;28;19978;-74
2023/05/21 00:26:16;;;;;;;;;;;15.20;99.90;;;;;;5072527;28;19986;-74
2023/05/21 00:28:43;;;;;;;;;;;13.20;99.90;;;;;;5068959;28;20352;-73
2023/05/21 00:31:10;;;;;;;;;;;13.20;99.90;;;;;;5070177;28;19981;-73
2023/05/21 00:33:37;;;;;;;;;;;13.20;99.90;;;;;;5085972;28;20346;-72
2023/05/21 00:36:04;;;;;;;;;;;13.10;99.90;;;;;;5068949;28;20370;-73
2023/05/21 00:38:31;;;;;;;;;;;13.10;99.90;;;;;;5086918;28;19928;-72
2023/05/21 00:41:01;;;;;;;;;;;13.10;99.90;;;;;;5086582;28;20309;-73
2023/05/21 00:43:28;;;;;;;;;;;13.10;99.90;;;;;;5079830;28;20026;-73
2023/05/21 00:45:55;;;;;;;;;;;13.10;99.90;;;;;;5078463;28;19968;-73
2023/05/21 00:48:22;;;;;;;;;;;13.10;99.90;;;;;;5070675;28;20020;-73
2023/05/21 00:50:49;;;;;;;;;;;13.20;99.90;;;;;;5069335;28;19978;-73
2023/05/21 00:53:18;;;;;;;;;;;13.20;99.90;;;;;;5066590;28;20023;-73
2023/05/21 00:55:45;;;;;;;;;;;;;;;;;;5065749;28;20040;-72
2023/05/21 00:58:12;;;;;;;;;;;;;;;;;;5066114;28;19964;-71
2023/05/21 01:00:40;;;;;;;;;;;13.20;99.90;;;;;;5082770;28;19954;-72
2023/05/21 01:03:07;;;;;;;;;;;;;;;;;;5083842;28;20413;-73
2023/05/21 01:05:35;;;;;;;;;;;13.20;99.90;;;;;;5069994;28;20149;-73
2023/05/21 01:08:02;;;;;;;;;;;13.10;99.90;;;;;;5065547;28;20019;-72
2023/05/21 01:10:29;;;;;;;;;;;13.10;99.90;;;;;;5086480;28;20015;-72
2023/05/21 01:12:56;;;;;;;;;;;13.10;99.90;;;;;;5085973;28;19928;-73
2023/05/21 01:15:26;;;;;;;;;;;13.10;99.90;;;;;;5097824;28;19931;-73
2023/05/21 01:17:54;;;;;;;;;;;;;;;;;;5087776;28;19997;-72
2023/05/21 01:20:23;;;;;;;;;;;12.90;99.90;;;;;;5082373;28;19960;-73
2023/05/21 01:22:52;;;;;;;;;;;13.10;99.90;;;;;;5082738;28;19928;-73
2023/05/21 01:25:19;;;;;;;;;;;;;;;;;;5092727;28;19924;-73
2023/05/21 01:27:46;;;;;;;;;;;13.10;99.90;;;;;;5082438;28;19928;-73
2023/05/21 01:30:13;;;;;;;;;;;13.10;99.90;;;;;;5072190;28;19924;-73
2023/05/21 01:32:44;;;;;;;;;;;13.00;99.90;;;;;;5078676;28;19935;-73
2023/05/21 01:35:11;;;;;;;;;;;;;;;;;;5093548;28;19935;-73
2023/05/21 01:37:38;;;;;;;;;;;;;;;;;;5084484;28;19933;-73
2023/05/21 01:40:05;;;;;;;;;;;;;;;;;;5091012;28;19924;-73
2023/05/21 01:42:34;;;;;;;;;;;13.00;99.90;;;;;;5092996;28;19935;-73
2023/05/21 01:45:03;;;;;;;;;;;;;;;;;;5082292;28;19928;-73
2023/05/21 01:47:31;;;;;;;;;;;13.00;99.90;;;;;;5078392;28;20018;-73
2023/05/21 01:49:59;;;;;;;;;;;13.00;99.90;;;;;;5075985;28;19928;-73
2023/05/21 01:52:25;;;;;;;;;;;13.00;99.90;;;;;;5072425;28;20394;-73
2023/05/21 01:54:53;;;;;;;;;;;13.00;99.90;;;;;;5080793;28;19932;-74
2023/05/21 01:57:20;;;;;;;;;;;13.10;99.90;;;;;;5079606;28;19977;-73
2023/05/21 01:59:47;;;;;;;;;;;;;;;;;;5091748;28;19944;-73
2023/05/21 02:02:14;;;;;;;;;;;;;;;;;;5068546;28;19932;-73
2023/05/21 02:04:42;;;;;;;;;;;;;;;;;;5079540;28;19993;-73
2023/05/21 02:07:13;;;;;;;;;;;13.00;99.90;;;;;;5084076;28;19975;-73
2023/05/21 02:09:39;;;;;;;;;;;13.00;99.90;;;;;;5054205;28;19936;-73
2023/05/21 02:12:07;;;;;;;;;;;13.00;99.90;;;;;;5055103;28;20495;-73
2023/05/21 02:14:33;;;;;;;;;;;13.00;99.90;;;;;;5086332;28;19946;-73
2023/05/21 02:17:00;;;;;;;;;;;;;;;;;;5089612;28;20391;-73
2023/05/21 02:19:27;;;;;;;;;;;;;;;;;;5084334;28;19928;-73
2023/05/21 02:21:54;;;;;;;;;;;13.00;99.90;;;;;;5082487;28;20319;-73
2023/05/21 02:24:23;;;;;;;;;;;;;;;;;;5073779;28;19959;-73
2023/05/21 02:26:51;;;;;;;;;;;;;;;;;;5074273;28;19951;-72
2023/05/21 02:29:19;;;;;;;;;;;12.90;99.90;;;;;;5081397;28;20304;-73
2023/05/21 02:31:46;;;;;;;;;;;13.00;99.90;;;;;;5083992;28;19981;-73
2023/05/21 02:34:12;;;;;;;;;;;13.00;99.90;;;;;;5084818;28;19928;-73
2023/05/21 02:36:40;;;;;;;;;;;;;;;;;;5066591;28;19932;-73
2023/05/21 02:39:07;;;;;;;;;;;;;;;;;;5084745;28;19932;-73
2023/05/21 02:41:34;;;;;;;;;;;;;;;;;;5065068;28;19924;-73
2023/05/21 02:44:01;;;;;;;;;;;13.00;99.90;;;;;;5068015;28;19939;-73
2023/05/21 02:46:29;;;;;;;;;;;13.00;99.90;;;;;;5083107;28;19928;-73
2023/05/21 02:48:56;;;;;;;;;;;13.00;99.90;;;;;;5075988;28;20015;-73
2023/05/21 02:51:23;;;;;;;;;;;;;;;;;;5075646;28;20282;-74
2023/05/21 02:53:50;;;;;;;;;;;;;;;;;;5095974;28;19931;-74
2023/05/21 02:56:17;;;;;;;;;;;;;;;;;;5089642;28;19924;-74
2023/05/21 02:58:44;;;;;;;;;;;12.90;99.90;;;;;;5104916;28;20397;-74
2023/05/21 03:01:11;;;;;;;;;;;;;;;;;;5094945;28;19987;-72
2023/05/21 03:03:39;;;;;;;;;;;12.80;99.90;;;;;;5095508;28;19971;-74
2023/05/21 03:06:08;;;;;;;;;;;12.80;99.90;;;;;;5101084;28;19932;-74
2023/05/21 03:08:35;;;;;;;;;;;12.80;99.90;;;;;;5103550;28;19981;-72
2023/05/21 03:11:03;;;;;;;;;;;;;;;;;;5085876;28;20409;-73
2023/05/21 03:13:30;;;;;;;;;;;12.80;99.90;;;;;;5081523;28;19950;-72
2023/05/21 03:15:57;;;;;;;;;;;;;;;;;;5083191;28;19932;-73
2023/05/21 03:18:24;;;;;;;;;;;;;;;;;;5073447;28;19936;-72
2023/05/21 03:20:52;;;;;;;;;;;12.70;99.90;;;;;;5085608;28;20386;-72
2023/05/21 03:23:19;;;;;;;;;;;;;;;;;;5084363;28;19943;-72
2023/05/21 03:25:47;;;;;;;;;;;;;;;;;;5066825;28;20305;-72
2023/05/21 03:28:14;;;;;;;;;;;12.60;99.90;;;;;;5079022;28;20346;-72
2023/05/21 03:30:48;;;;;;;;;;;12.60;99.90;;;;;;5080790;28;20002;-72
2023/05/21 03:33:35;;;;;;;;;;;;;;;;;;5036093;28;19927;-73
2023/05/21 03:36:12;;;;;;;;;;;;;;;;;;5086702;28;19939;-73
2023/05/21 03:38:40;;;;;;;;;;;;;;;;;;5085039;28;20423;-73
2023/05/21 03:41:08;;;;;;;;;;;12.60;99.90;;;;;;5100317;28;19944;-73
2023/05/21 03:43:35;;;;;;;;;;;12.70;99.90;;;;;;5096452;28;20010;-72
2023/05/21 03:46:02;;;;;;;;;;;12.60;99.90;;;;;;5074405;28;19929;-73
2023/05/21 03:48:51;;;;;;;;;;;12.60;99.90;;;;;;5077182;28;19924;-75
2023/05/21 03:51:21;;;;;;;;;;;12.60;99.90;;;;;;5103328;28;20027;-75
2023/05/21 03:53:49;;;;;;;;;;;;;;;;;;5087794;28;20385;-77
2023/05/21 03:56:17;;;;;;;;;;;12.70;99.90;;;;;;5086887;28;19935;-76
2023/05/21 03:58:44;;;;;;;;;;;12.80;99.90;;;;;;5076296;28;19928;-76
2023/05/21 04:01:11;;;;;;;;;;;12.70;99.90;;;;;;5081615;28;19924;-77
2023/05/21 04:03:37;;;;;;;;;;;12.80;99.90;;;;;;5088490;28;19963;-76
2023/05/21 04:06:06;;;;;;;;;;;;;;;;;;5088013;28;20038;-76
2023/05/21 04:08:33;;;;;;;;;;;;;;;;;;5070872;28;20369;-77
2023/05/21 04:10:59;;;;;;;;;;;12.80;99.90;;;;;;5068922;28;19938;-76
2023/05/21 04:13:27;;;;;;;;;;;;;;;;;;5085569;28;19931;-76
2023/05/21 04:15:55;;;;;;;;;;;12.80;99.90;;;;;;5078939;28;20375;-77
2023/05/21 04:18:24;;;;;;;;;;;;;;;;;;5075878;28;19938;-77
2023/05/21 04:20:52;;;;;;;;;;;;;;;;;;5070441;28;19932;-77
2023/05/21 04:23:22;;;;;;;;;;;;;;;;;;5087048;28;20551;-77
2023/05/21 04:25:49;;;;;;;;;;;;;;;;;;5085957;28;20198;-74
2023/05/21 04:28:18;;;;;;;;;;;;;;;;;;5076009;28;19932;-74
2023/05/21 04:30:46;;;;;;;;;;;13.00;99.90;;;;;;5082609;28;19979;-72
2023/05/21 04:33:16;;;;;;;;;;;13.10;99.90;;;;;;5075554;28;19966;-72
2023/05/21 04:35:45;;;;;;;;;;;;;;;;;;5087554;28;19999;-72
2023/05/21 04:38:12;;;;;;;;;;;;;;;;;;5086343;28;19959;-74
2023/05/21 04:40:40;;;;;;;;;;;;;;;;;;5082835;28;20281;-73
2023/05/21 04:43:07;;;;;;;;;;;13.20;99.90;;;;;;5083628;28;19928;-73
2023/05/21 04:45:35;;;;;;;;;;;13.30;99.90;;;;;;5077255;28;20304;-72
2023/05/21 04:48:02;;;;;;;;;;;;;;;;;;5071018;28;20389;-72
2023/05/21 04:50:30;;;;;;;;;;;;;;;;;;5096459;28;19963;-73
2023/05/21 04:52:58;;;;;;;;;;;13.40;99.90;;;;;;5087793;28;20266;-74
2023/05/21 04:55:26;;;;;;;;;;;13.40;99.90;;;;;;5085864;28;19932;-73
2023/05/21 04:57:53;;;;;;;;;;;13.50;99.90;;;;;;5079383;28;20019;-73
2023/05/21 05:00:29;;;;;;;;;;;13.60;99.90;;;;;;5074044;28;19928;-77
2023/05/21 05:02:58;;;;;;;;;;;13.60;99.90;;;;;;5077754;28;19925;-76
2023/05/21 05:05:24;;;;;;;;;;;13.60;99.90;;;;;;5087759;28;19928;-76
2023/05/21 05:07:54;;;;;;;;;;;13.70;99.90;;;;;;5086621;28;20444;-77
2023/05/21 05:10:22;;;;;;;;;;;13.80;99.90;;;;;;5083333;28;19928;-76
2023/05/21 05:12:49;;;;;;;;;;;13.80;99.90;;;;;;5068656;28;20332;-76
2023/05/21 05:15:17;;;;;;;;;;;13.90;99.90;;;;;;5073867;28;20321;-76
2023/05/21 05:17:46;;;;;;;;;;;13.90;99.90;;;;;;5074369;28;19954;-76
2023/05/21 05:20:13;;;;;;;;;;;13.90;99.90;;;;;;5065019;28;19932;-77
2023/05/21 05:22:41;;;;;;;;;;;;;;;;;;5078589;28;20013;-77
2023/05/21 05:25:08;;;;;;;;;;;14.00;99.90;;;;;;5078036;28;19935;-77
2023/05/21 05:27:35;;;;;;;;;;;;;;;;;;5078973;28;20740;-76
2023/05/21 05:30:02;;;;;;;;;;;;;;;;;;5064514;28;19928;-77
2023/05/21 05:32:32;;;;;;;;;;;14.40;99.90;;;;;;5069056;28;19939;-77
2023/05/21 05:34:59;;;;;;;;;;;14.50;99.90;;;;;;5083447;28;19930;-74
2023/05/21 05:37:26;;;;;;;;;;;;;;;;;;5080659;28;19936;-75
2023/05/21 05:39:55;;;;;;;;;;;;;;;;;;5081698;28;19924;-75
2023/05/21 05:42:22;;;;;;;;;;;15.00;99.90;;;;;;5074426;28;19946;-75
2023/05/21 05:44:49;;;;;;;;;;;15.10;99.90;;;;;;5076883;28;20277;-75
2023/05/21 05:47:16;;;;;;;;;;;15.10;99.90;;;;;;5084770;28;20369;-75
2023/05/21 05:49:45;;;;;;;;;;;15.10;99.90;;;;;;5076830;28;20296;-75
2023/05/21 05:52:12;;;;;;;;;;;15.10;99.90;;;;;;5090591;28;19935;-75
2023/05/21 05:54:38;;;;;;;;;;;15.70;99.90;;;;;;5078537;28;19928;-75
2023/05/21 05:57:05;;;;;;;;;;;15.40;99.90;;;;;;5077334;28;19924;-75
2023/05/21 05:59:33;;;;;;;;;;;15.40;99.90;;;;;;5075874;28;20279;-75
2023/05/21 06:02:00;;;;;;;;;;;15.50;99.90;;;;;;5072318;28;19924;-74
2023/05/21 06:04:28;;;;;;;;;;;15.50;99.90;;;;;;5082377;28;19974;-76
2023/05/21 06:06:57;;;;;;;;;;;15.80;99.90;;;;;;5089533;28;20011;-75
2023/05/21 06:09:24;;;;;;;;;;;15.80;99.90;;;;;;5084033;28;19924;-75
2023/05/21 06:11:50;;;;;;;;;;;15.90;99.90;;;;;;5090084;28;20134;-75
2023/05/21 06:14:17;;;;;;;;;;;18.60;99.90;;;;;;5082789;28;19938;-76
2023/05/21 06:16:44;;;;;;;;;;;16.20;99.90;;;;;;5074898;28;19928;-76
2023/05/21 06:19:11;;;;;;;;;;;16.30;99.90;;;;;;5075626;28;20033;-76
2023/05/21 06:21:38;;;;;;;;;;;16.20;99.90;;;;;;5084788;28;20367;-77
2023/05/21 06:24:07;;;;;;;;;;;16.10;99.90;;;;;;5083658;28;20407;-76
2023/05/21 06:26:34;;;;;;;;;;;16.40;99.90;;;;;;5068258;28;20023;-77
2023/05/21 06:29:01;;;;;;;;;;;16.40;99.90;;;;;;5088218;28;20320;-74
2023/05/21 06:31:31;;;;;;;;;;;16.60;99.90;;;;;;5088895;28;19936;-74
2023/05/21 06:33:58;;;;;;;;;;;16.80;99.90;;;;;;5086428;28;20001;-74
2023/05/21 06:36:28;;;;;;;;;;;17.40;99.90;;;;;;5088659;28;20416;-75
2023/05/21 06:38:55;;;;;;;;;;;18.20;99.90;;;;;;5079560;28;20233;-75
2023/05/21 06:41:26;;;;;;;;;;;20.10;99.90;;;;;;5090564;28;19924;-75
2023/05/21 06:43:56;;;;;;;;;;;19.20;99.90;;;;;;5090242;28;19932;-75
2023/05/21 06:46:42;;;;;;;;;;;19.70;99.90;;;;;;5076338;28;19983;-75
2023/05/21 06:49:10;;;;;;;;;;;20.00;99.90;;;;;;5049338;28;19939;-75
2023/05/21 06:51:37;;;;;;;;;;;20.40;99.90;;;;;;5070970;28;19929;-75
2023/05/21 06:54:05;;;;;;;;;;;20.50;99.90;;;;;;5047287;28;19938;-74
2023/05/21 06:56:35;;;;;;;;;;;20.30;99.90;;;;;;5047480;28;19928;-74
2023/05/21 06:59:01;;;;;;;;;;;20.30;99.90;;;;;;5059473;28;19929;-75
2023/05/21 07:01:29;;;;;;;;;;;20.40;99.90;;;;;;5032472;28;19925;-74
2023/05/21 07:03:56;;;;;;;;;;;20.70;99.90;;;;;;5046136;28;20381;-74
2023/05/21 07:06:25;;;;;;;;;;;20.90;99.90;;;;;;5045584;28;19947;-74
2023/05/21 07:08:52;;;;;;;;;;;21.20;99.90;;;;;;5033149;28;19968;-76
2023/05/21 07:11:19;;;;;;;;;;;21.90;99.90;;;;;;5045264;28;20021;-74
2023/05/21 07:13:47;;;;;;;;;;;22.20;99.90;;;;;;5059214;28;20085;-74
2023/05/21 07:16:16;;;;;;;;;;;22.70;99.90;;;;;;5044738;28;20386;-75
2023/05/21 07:18:43;;;;;;;;;;;23.20;99.90;;;;;;5040709;28;20496;-73
2023/05/21 07:21:10;;;;;;;;;;;23.70;99.90;;;;;;5061248;28;20352;-73
2023/05/21 07:23:37;;;;;;;;;;;22.50;99.90;;;;;;5031423;28;19925;-75
2023/05/21 07:26:04;;;;;;;;;;;24.70;99.90;;;;;;5044223;28;19982;-76
2023/05/21 07:28:31;;;;;;;;;;;24.80;99.90;;;;;;5067630;28;19935;-75
2023/05/21 07:30:59;;;;;;;;;;;25.30;99.90;;;;;;5086177;28;19929;-74
2023/05/21 07:33:32;;;;;;;;;;;25.40;99.90;;;;;;5071588;28;19928;-76
2023/05/21 07:35:59;;;;;;;;;;;25.70;99.90;;;;;;5068114;28;20008;-75
2023/05/21 07:38:26;;;;;;;;;;;25.70;99.90;;;;;;5040098;28;19975;-75
2023/05/21 07:40:52;;;;;;;;;;;27.20;99.90;;;;;;5033303;28;19979;-74
2023/05/21 07:43:20;;;;;;;;;;;28.30;99.90;;;;;;5047572;28;19982;-75
2023/05/21 07:45:47;;;;;;;;;;;28.60;99.90;;;;;;5050158;28;19928;-75
2023/05/21 07:48:15;;;;;;;;;;;29.10;99.90;;;;;;5029001;28;19928;-72
2023/05/21 07:50:52;;;;;;;;;;;29.20;99.90;;;;;;5029635;28;20445;-73
2023/05/21 07:53:19;;;;;;;;;;;28.50;99.90;;;;;;5030168;28;19947;-73
2023/05/21 07:55:47;;;;;;;;;;;28.10;99.90;;;;;;5057684;28;20055;-74
2023/05/21 07:58:16;;;;;;;;;;;27.70;99.90;;;;;;5057660;28;20346;-74
2023/05/21 08:00:45;;;;;;;;;;;27.00;99.90;;;;;;5028988;28;20331;-73
2023/05/21 08:03:15;;;;;;;;;;;26.60;99.90;;;;;;5032650;28;19929;-74
2023/05/21 08:05:47;;;;;;;;;;;25.90;99.90;;;;;;5030094;28;19986;-73
2023/05/21 08:08:14;;;;;;;;;;;24.90;99.90;;;;;;5037385;28;19928;-73
2023/05/21 08:10:40;;;;;;;;;;;24.90;99.90;;;;;;5056627;28;19948;-76
2023/05/21 08:13:07;;;;;;;;;;;24.60;99.90;;;;;;5033177;28;19924;-73
2023/05/21 08:15:34;;;;;;;;;;;24.40;99.90;;;;;;5055825;28;19989;-74
2023/05/21 08:18:01;;;;;;;;;;;24.00;99.90;;;;;;5068318;28;19963;-76
2023/05/21 08:20:29;;;;;;;;;;;24.20;99.90;;;;;;5047705;28;19924;-77
2023/05/21 08:22:56;;;;;;;;;;;24.00;99.90;;;;;;5063157;28;19928;-74
2023/05/21 08:25:23;;;;;;;;;;;23.70;99.90;;;;;;5042022;28;19932;-75
2023/05/21 08:27:50;;;;;;;;;;;23.40;99.90;;;;;;5062456;28;19938;-76
2023/05/21 08:30:17;;;;;;;;;;;23.60;99.90;;;;;;5060218;28;19928;-75
2023/05/21 08:32:44;;;;;;;;;;;24.30;99.90;;;;;;5052691;28;20026;-74
2023/05/21 08:35:12;;;;;;;;;;;24.30;99.90;;;;;;5048704;28;19924;-74
2023/05/21 08:37:57;;;;;;;;;;;24.40;99.90;;;;;;5046159;28;19929;-75
2023/05/21 08:40:35;;;;;;;;;;;24.60;99.90;;;;;;5046218;28;19962;-75
2023/05/21 08:43:02;;;;;;;;;;;24.90;99.90;;;;;;5049331;28;19970;-74
2023/05/21 08:45:40;;;;;;;;;;;25.00;99.90;;;;;;5047208;28;19939;-75
2023/05/21 08:48:09;;;;;;;;;;;25.20;99.90;;;;;;5047756;28;19948;-75
2023/05/21 08:50:36;;;;;;;;;;;24.90;99.90;;;;;;5049632;28;19929;-76
2023/05/21 08:53:12;;;;;;;;;;;24.60;99.90;;;;;;5044860;28;19932;-75
2023/05/21 08:55:41;;;;;;;;;;;24.80;99.90;;;;;;5051071;28;19940;-75
2023/05/21 08:58:08;;;;;;;;;;;25.80;99.90;;;;;;5063488;28;19925;-76
2023/05/21 09:00:34;;;;;;;;;;;26.80;99.90;;;;;;5042592;28;19929;-76
2023/05/21 09:03:06;;;;;;;;;;;27.10;99.90;;;;;;5032667;28;19951;-76
2023/05/21 09:05:35;;;;;;;;;;;27.00;99.90;;;;;;5045555;28;19964;-76
2023/05/21 09:08:05;;;;;;;;;;;26.90;99.90;;;;;;5054882;28;19932;-76
2023/05/21 09:10:56;;;;;;;;;;;27.40;99.90;;;;;;5060451;28;19928;-74
2023/05/21 09:13:28;;;;;;;;;;;28.00;99.90;;;;;;5057003;28;19935;-74
2023/05/21 09:15:55;;;;;;;;;;;28.10;99.90;;;;;;5050902;28;19933;-75
2023/05/21 09:18:26;;;;;;;;;;;28.60;99.90;;;;;;5048241;28;20415;-75
2023/05/21 09:21:26;;;;;;;;;;;29.00;99.90;;;;;;5060943;28;19929;-75
2023/05/21 09:23:56;;;;;;;;;;;28.40;99.90;;;;;;5038789;28;19928;-75
2023/05/21 09:26:24;;;;;;;;;;;27.30;99.90;;;;;;5041623;28;20025;-76
2023/05/21 09:28:57;;;;;;;;;;;26.70;99.90;;;;;;5065181;28;19925;-75
2023/05/21 09:31:24;;;;;;;;;;;26.00;99.90;;;;;;5048681;28;19928;-75
2023/05/21 09:33:51;;;;;;;;;;;25.70;99.90;;;;;;5046925;28;19940;-75
2023/05/21 09:36:20;;;;;;;;;;;25.40;99.90;;;;;;5053137;28;19947;-75
2023/05/21 09:38:47;;;;;;;;;;;25.30;99.90;;;;;;5081972;28;20023;-75
2023/05/21 09:41:14;;;;;;;;;;;25.30;99.90;;;;;;5052241;28;19932;-75
2023/05/21 09:43:43;;;;;;;;;;;24.90;99.90;;;;;;5553870;22;20430;-76
2023/05/21 09:46:10;;;;;;;;;;;25.10;99.90;;;;;;5022549;28;19933;-76
2023/05/21 09:48:38;;;;;;;;;;;25.30;99.90;;;;;;5011520;28;20405;-75
2023/05/21 09:51:14;;;;;;;;;;;25.30;99.90;;;;;;5023496;28;19926;-74
2023/05/21 09:53:44;;;;;;;;;;;25.30;99.90;;;;;;5029314;28;20054;-74
2023/05/21 09:56:11;;;;;;;;;;;25.20;99.90;;;;;;5018279;28;19933;-74
2023/05/21 09:58:38;;;;;;;;;;;25.30;99.90;;;;;;5022176;28;20318;-73
2023/05/21 10:01:06;;;;;;;;;;;25.30;99.90;;;;;;5012526;28;19942;-73
2023/05/21 10:03:33;;;;;;;;;;;25.30;99.90;;;;;;5012878;28;19934;-74
2023/05/21 10:06:00;;;;;;;;;;;25.70;99.90;;;;;;5016314;28;19929;-73
2023/05/21 10:08:30;;;;;;;;;;;26.10;99.90;;;;;;5023370;28;20136;-73
2023/05/21 10:10:57;;;;;;;;;;;26.80;99.90;;;;;;5031203;28;19933;-74
2023/05/21 10:13:24;;;;;;;;;;;26.70;99.90;;;;;;5022188;28;20702;-74
2023/05/21 10:15:54;;;;;;;;;;;26.60;99.90;;;;;;5015078;28;19933;-74
2023/05/21 10:18:23;;;;;;;;;;;26.60;99.90;;;;;;5026881;28;20310;-73
2023/05/21 10:20:50;;;;;;;;;;;25.80;99.90;;;;;;5022319;28;20254;-73
2023/05/21 10:23:17;;;;;;;;;;;26.20;99.90;;;;;;5028989;28;19929;-74
2023/05/21 10:25:45;;;;;;;;;;;26.10;99.90;;;;;;5019714;28;19955;-75
2023/05/21 10:28:15;;;;;;;;;;;26.10;99.90;;;;;;5025904;28;19929;-75
2023/05/21 10:30:42;;;;;;;;;;;25.80;99.90;;;;;;5019299;28;19929;-73
2023/05/21 10:33:09;;;;;;;;;;;25.20;99.90;;;;;;5018941;28;19929;-73
2023/05/21 10:35:38;;;;;;;;;;;25.30;99.90;;;;;;5016107;28;20017;-73
2023/05/21 10:38:06;;;;;;;;;;;25.60;99.90;;;;;;5023066;28;19932;-74
2023/05/21 10:40:34;;;;;;;;;;;25.60;99.90;;;;;;5026416;28;19991;-74
2023/05/21 10:43:16;;;;;;;;;;;26.50;99.90;;;;;;5031481;28;19932;-76
2023/05/21 10:45:50;;;;;;;;;;;25.50;99.90;;;;;;5042574;28;20028;-74
2023/05/21 10:48:33;;;;;;;;;;;25.40;99.90;;;;;;5048364;28;19928;-72
2023/05/21 10:51:10;;;;;;;;;;;25.50;99.90;;;;;;5031279;28;19925;-73
2023/05/21 10:53:44;;;;;;;;;;;25.40;99.90;;;;;;5049510;28;19928;-73
2023/05/21 10:56:15;;;;;;;;;;;25.50;99.90;;;;;;5031349;28;19929;-73
2023/05/21 10:58:57;;;;;;;;;;;25.20;99.90;;;;;;5047018;28;19944;-72
2023/05/21 11:01:26;;;;;;;;;;;25.10;99.90;;;;;;5048765;28;20240;-74
2023/05/21 11:03:54;;;;;;;;;;;24.90;99.90;;;;;;5046551;28;19937;-74
2023/05/21 11:06:26;;;;;;;;;;;24.80;99.90;;;;;;5041259;28;19932;-74
2023/05/21 11:08:53;;;;;;;;;;;24.70;99.90;;;;;;5039647;28;19971;-74
2023/05/21 11:11:41;;;;;;;;;;;24.30;99.90;;;;;;5033866;28;19928;-74
2023/05/21 11:14:22;;;;;;;;;;;24.20;99.90;;;;;;5037569;28;20416;-74
2023/05/21 11:16:49;;;;;;;;;;;24.10;99.90;;;;;;5041440;28;19936;-73
2023/05/21 11:19:17;;;;;;;;;;;24.40;99.90;;;;;;5042881;28;20781;-73
2023/05/21 11:21:49;;;;;;;;;;;25.30;99.90;;;;;;5040326;28;20062;-74
2023/05/21 11:24:18;;;;;;;;;;;25.40;99.90;;;;;;5033251;28;19932;-74
2023/05/21 11:27:03;;;;;;;;;;;25.80;99.90;;;;;;5030690;28;20003;-73
2023/05/21 11:29:39;;;;;;;;;;;25.80;99.90;;;;;;5034874;28;19929;-74
2023/05/21 11:32:07;;;;;;;;;;;26.10;99.90;;;;;;5036734;28;19939;-74
2023/05/21 11:34:38;;;;;;;;;;;26.10;99.90;;;;;;5041659;28;20393;-73
2023/05/21 11:37:40;;;;;;;;;;;26.10;99.90;;;;;;5038321;28;19933;-74
2023/05/21 11:40:29;;;;;;;;;;;26.30;99.90;;;;;;5028702;28;19979;-74
2023/05/21 11:42:57;;;;;;;;;;;26.70;99.90;;;;;;5045023;28;20008;-74
2023/05/21 11:45:29;;;;;;;;;;;26.90;99.90;;;;;;5039891;28;20908;-74
2023/05/21 11:47:56;;;;;;;;;;;27.00;99.90;;;;;;5044383;28;19955;-74
2023/05/21 11:50:22;;;;;;;;;;;26.70;99.90;;;;;;5038121;28;19940;-74
2023/05/21 11:52:49;;;;;;;;;;;26.10;99.90;;;;;;5043022;28;20567;-74
2023/05/21 11:55:20;;;;;;;;;;;26.20;99.90;;;;;;5039176;28;19932;-74
2023/05/21 11:57:48;;;;;;;;;;;26.70;99.90;;;;;;5030794;28;20291;-74
2023/05/21 12:00:16;;;;;;;;;;;26.90;99.90;;;;;;5036063;28;19937;-74
2023/05/21 12:05:10;;;;;;;;;;;27.50;99.90;;;;;;4977159;28;20525;-74
2023/05/21 12:07:37;;;;;;;;;;;27.60;99.90;;;;;;4994696;28;19933;-74
2023/05/21 12:10:04;;;;;;;;;;;27.80;99.90;;;;;;4980877;28;19937;-73
2023/05/21 12:12:31;;;;;;;;;;;27.10;99.90;;;;;;4976505;28;19940;-75
2023/05/21 12:14:58;;;;;;;;;;;26.90;99.90;;;;;;4976661;28;20308;-73
2023/05/21 12:17:26;;;;;;;;;;;26.20;99.90;;;;;;4978060;28;19933;-75
2023/05/21 12:19:54;;;;;;;;;;;25.90;99.90;;;;;;4988954;28;19926;-75
2023/05/21 12:22:22;;;;;;;;;;;25.90;99.90;;;;;;4988836;28;19980;-74
2023/05/21 12:24:49;;;;;;;;;;;25.80;99.90;;;;;;4988860;28;20391;-74
2023/05/21 12:27:17;;;;;;;;;;;25.70;99.90;;;;;;4985477;28;19929;-75
2023/05/21 12:29:44;;;;;;;;;;;26.10;99.90;;;;;;4987320;28;20374;-74
2023/05/21 12:32:12;;;;;;;;;;;25.90;99.90;;;;;;4980276;28;20043;-74
2023/05/21 12:34:41;;;;;;;;;;;25.90;99.90;;;;;;4979683;28;19933;-73
2023/05/21 12:37:08;;;;;;;;;;;25.90;99.90;;;;;;4987391;28;19937;-75
2023/05/21 12:39:39;;;;;;;;;;;25.80;99.90;;;;;;4982801;28;20028;-75
2023/05/21 12:42:06;;;;;;;;;;;25.70;99.90;;;;;;4975982;28;20304;-74
2023/05/21 12:44:33;;;;;;;;;;;25.90;99.90;;;;;;4974031;28;20008;-75
2023/05/21 12:47:00;;;;;;;;;;;26.00;99.90;;;;;;4975199;28;19929;-75
2023/05/21 12:49:30;;;;;;;;;;;26.10;99.90;;;;;;4980995;28;19977;-76
2023/05/21 12:51:58;;;;;;;;;;;26.00;99.90;;;;;;4972473;28;19929;-76
2023/05/21 12:54:28;;;;;;;;;;;26.10;99.90;;;;;;4975750;28;19929;-76
2023/05/21 12:56:55;;;;;;;;;;;25.80;99.90;;;;;;4975635;28;20006;-75
2023/05/21 12:59:22;;;;;;;;;;;25.70;99.90;;;;;;4974321;28;20018;-75
2023/05/21 13:01:49;;;;;;;;;;;25.90;99.90;;;;;;4974618;28;20040;-75
2023/05/21 13:04:15;;;;;;;;;;;25.90;99.90;;;;;;5002241;28;19945;-75
2023/05/21 13:06:42;;;;;;;;;;;25.90;99.90;;;;;;5018545;28;20653;-75
2023/05/21 13:09:10;;;;;;;;;;;26.30;99.90;;;;;;5013733;28;20402;-75
2023/05/21 13:11:37;;;;;;;;;;;26.80;99.90;;;;;;5013117;28;19956;-75
2023/05/21 13:14:04;;;;;;;;;;;26.60;99.90;;;;;;5022531;28;19991;-75
2023/05/21 13:16:31;;;;;;;;;;;26.70;99.90;;;;;;5021019;28;21214;-75
2023/05/21 13:18:58;;;;;;;;;;;26.60;99.90;;;;;;5020335;28;19937;-74
2023/05/21 13:21:25;;;;;;;;;;;26.50;99.90;;;;;;5024592;28;20874;-74
2023/05/21 13:23:51;;;;;;;;;;;27.00;99.90;;;;;;5027207;28;19980;-74
2023/05/21 13:26:20;;;;;;;;;;;27.20;99.90;;;;;;5023989;28;20333;-73
2023/05/21 13:28:47;;;;;;;;;;;28.50;99.90;;;;;;5024997;28;19936;-73
2023/05/21 13:31:15;;;;;;;;;;;27.30;99.90;;;;;;5020676;28;20402;-74
2023/05/21 13:33:41;;;;;;;;;;;27.50;99.90;;;;;;5018016;28;20027;-74
2023/05/21 13:36:08;;;;;;;;;;;27.40;99.90;;;;;;5028510;28;20338;-74
2023/05/21 13:38:35;;;;;;;;;;;27.10;99.90;;;;;;5023569;28;20317;-74
2023/05/21 13:41:02;;;;;;;;;;;27.10;99.90;;;;;;5022776;28;20377;-73
2023/05/21 13:43:30;;;;;;;;;;;27.20;99.90;;;;;;5019215;28;19925;-73
2023/05/21 13:45:57;;;;;;;;;;;27.20;99.90;;;;;;5026755;28;19929;-74
2023/05/21 13:48:26;;;;;;;;;;;27.10;99.90;;;;;;5007763;28;19929;-74
2023/05/21 13:50:53;;;;;;;;;;;26.90;99.90;;;;;;5026352;28;20048;-73
2023/05/21 13:53:19;;;;;;;;;;;26.80;99.90;;;;;;5023007;28;19983;-74
2023/05/21 13:55:46;;;;;;;;;;;26.60;99.90;;;;;;5016991;28;19934;-73
2023/05/21 13:58:13;;;;;;;;;;;26.50;99.90;;;;;;5016749;28;20809;-73
2023/05/21 14:00:41;;;;;;;;;;;26.20;99.90;;;;;;5017956;28;20110;-73
2023/05/21 14:03:09;;;;;;;;;;;26.00;99.90;;;;;;5019343;28;20028;-73
2023/05/21 14:05:36;;;;;;;;;;;26.10;99.90;;;;;;5017854;28;20051;-74
2023/05/21 14:08:03;;;;;;;;;;;26.10;99.90;;;;;;5020915;28;19987;-74
2023/05/21 14:10:32;;;;;;;;;;;26.10;99.90;;;;;;5016240;28;19925;-74
2023/05/21 14:12:59;;;;;;;;;;;26.20;99.90;;;;;;5018384;28;19949;-74
2023/05/21 14:15:26;;;;;;;;;;;26.30;99.90;;;;;;5017536;28;19930;-74
2023/05/21 14:17:54;;;;;;;;;;;26.40;99.90;;;;;;5006659;28;20310;-74
2023/05/21 14:20:21;;;;;;;;;;;26.40;99.90;;;;;;5022056;28;19933;-74
2023/05/21 14:22:48;;;;;;;;;;;26.50;99.90;;;;;;5031270;28;19929;-73
2023/05/21 14:25:14;;;;;;;;;;;26.70;99.90;;;;;;5033484;28;19929;-73
2023/05/21 14:27:41;;;;;;;;;;;26.70;99.90;;;;;;5032940;28;20042;-74
2023/05/21 14:30:08;;;;;;;;;;;26.90;99.90;;;;;;5029880;28;19929;-74
2023/05/21 14:32:35;;;;;;;;;;;27.40;99.90;;;;;;5029260;28;19933;-74
2023/05/21 14:35:03;;;;;;;;;;;27.50;99.90;;;;;;5019816;28;19929;-74
2023/05/21 14:37:30;;;;;;;;;;;27.60;99.90;;;;;;5029042;28;19936;-74
2023/05/21 14:39:57;;;;;;;;;;;27.60;99.90;;;;;;5025177;28;19969;-75
2023/05/21 14:42:23;;;;;;;;;;;27.50;99.90;;;;;;5021873;28;19944;-76
2023/05/21 14:44:50;;;;;;;;;;;27.60;99.90;;;;;;5022317;28;20629;-75
2023/05/21 14:47:17;;;;;;;;;;;27.70;99.90;;;;;;5015326;28;20042;-75